sensor_id;sensor_type;location;lat;lon;timestamp;pressure;altitude;pressure_sealevel;temperature;humidity
77583;BME280;66726;52.388;9.986;2023-06-14T00:01:02;101050.75;;;19.39;41.98
77583;BME280;66726;52.388;9.986;2023-06-14T00:03:36;101052.00;;;19.30;42.26
77583;BME280;66726;52.388;9.986;2023-06-14T00:06:11;101057.03;;;19.20;42.34
77583;BME280;66726;52.388;9.986;2023-06-14T00:08:43;101055.34;;;19.19;42.92
77583;BME280;66726;52.388;9.986;2023-06-14T00:11:14;101059.31;;;19.23;43.05
77583;BME280;66726;52.388;9.986;2023-06-14T00:13:46;101065.59;;;19.17;42.74
77583;BME280;66726;52.388;9.986;2023-06-14T00:16:18;101062.25;;;19.15;42.68
77583;BME280;66726;52.388;9.986;2023-06-14T00:18:51;101063.69;;;18.98;43.17
77583;BME280;66726;52.388;9.986;2023-06-14T00:21:25;101064.53;;;18.92;43.45
77583;BME280;66726;52.388;9.986;2023-06-14T00:24:01;101068.06;;;18.99;43.27
77583;BME280;66726;52.388;9.986;2023-06-14T00:26:33;101072.63;;;18.79;43.67
77583;BME280;66726;52.388;9.986;2023-06-14T00:29:05;101075.78;;;18.76;44.07
77583;BME280;66726;52.388;9.986;2023-06-14T00:31:37;101077.03;;;18.86;43.82
77583;BME280;66726;52.388;9.986;2023-06-14T00:34:09;101073.06;;;18.82;43.81
77583;BME280;66726;52.388;9.986;2023-06-14T00:36:42;101069.94;;;18.79;44.34
77583;BME280;66726;52.388;9.986;2023-06-14T00:39:14;101073.03;;;18.62;44.41
77583;BME280;66726;52.388;9.986;2023-06-14T00:41:46;101071.56;;;18.66;44.32
77583;BME280;66726;52.388;9.986;2023-06-14T00:44:20;101071.13;;;18.56;44.52
77583;BME280;66726;52.388;9.986;2023-06-14T00:46:52;101076.25;;;18.38;44.75
77583;BME280;66726;52.388;9.986;2023-06-14T00:49:25;101083.94;;;18.28;45.04
77583;BME280;66726;52.388;9.986;2023-06-14T00:51:58;101080.94;;;18.16;45.30
77583;BME280;66726;52.388;9.986;2023-06-14T00:54:30;101072.38;;;18.13;45.59
77583;BME280;66726;52.388;9.986;2023-06-14T00:57:02;101072.66;;;18.24;45.69
77583;BME280;66726;52.388;9.986;2023-06-14T00:59:34;101070.69;;;18.12;45.51
77583;BME280;66726;52.388;9.986;2023-06-14T01:02:09;101074.06;;;18.14;45.46
77583;BME280;66726;52.388;9.986;2023-06-14T01:04:42;101076.16;;;18.18;45.94
77583;BME280;66726;52.388;9.986;2023-06-14T01:07:27;101073.25;;;18.20;45.53
77583;BME280;66726;52.388;9.986;2023-06-14T01:10:28;101079.94;;;18.24;46.27
77583;BME280;66726;52.388;9.986;2023-06-14T01:13:07;101073.66;;;18.17;45.89
77583;BME280;66726;52.388;9.986;2023-06-14T01:15:42;101077.63;;;18.14;46.24
77583;BME280;66726;52.388;9.986;2023-06-14T01:18:15;101073.44;;;18.18;45.80
77583;BME280;66726;52.388;9.986;2023-06-14T01:20:49;101080.75;;;18.18;46.44
77583;BME280;66726;52.388;9.986;2023-06-14T01:23:24;101081.97;;;18.15;46.23
77583;BME280;66726;52.388;9.986;2023-06-14T01:26:04;101082.19;;;18.14;46.29
77583;BME280;66726;52.388;9.986;2023-06-14T01:28:37;101079.88;;;18.11;46.93
77583;BME280;66726;52.388;9.986;2023-06-14T01:31:10;101087.16;;;18.04;46.87
77583;BME280;66726;52.388;9.986;2023-06-14T01:33:43;101082.91;;;17.95;47.10
77583;BME280;66726;52.388;9.986;2023-06-14T01:36:17;101079.16;;;17.96;46.66
77583;BME280;66726;52.388;9.986;2023-06-14T01:38:53;101087.09;;;17.91;47.37
77583;BME280;66726;52.388;9.986;2023-06-14T01:41:27;101085.09;;;17.78;47.89
77583;BME280;66726;52.388;9.986;2023-06-14T01:44:00;101088.25;;;17.82;47.56
77583;BME280;66726;52.388;9.986;2023-06-14T01:46:33;101086.81;;;17.86;47.74
77583;BME280;66726;52.388;9.986;2023-06-14T01:49:05;101088.25;;;17.82;47.66
77583;BME280;66726;52.388;9.986;2023-06-14T01:51:37;101088.19;;;17.68;47.83
77583;BME280;66726;52.388;9.986;2023-06-14T01:54:12;101094.00;;;17.65;48.08
77583;BME280;66726;52.388;9.986;2023-06-14T01:56:44;101088.97;;;17.62;48.48
77583;BME280;66726;52.388;9.986;2023-06-14T01:59:15;101092.63;;;17.55;48.08
77583;BME280;66726;52.388;9.986;2023-06-14T02:01:47;101092.63;;;17.55;48.89
77583;BME280;66726;52.388;9.986;2023-06-14T02:04:19;101093.09;;;17.58;48.83
77583;BME280;66726;52.388;9.986;2023-06-14T02:06:51;101093.09;;;17.58;48.52
77583;BME280;66726;52.388;9.986;2023-06-14T02:09:24;101093.53;;;17.62;48.33
77583;BME280;66726;52.388;9.986;2023-06-14T02:11:56;101093.47;;;17.55;48.05
77583;BME280;66726;52.388;9.986;2023-06-14T02:14:28;101085.09;;;17.50;48.72
77583;BME280;66726;52.388;9.986;2023-06-14T02:17:00;101095.81;;;17.37;49.01
77583;BME280;66726;52.388;9.986;2023-06-14T02:19:34;101097.63;;;17.30;48.91
77583;BME280;66726;52.388;9.986;2023-06-14T02:22:08;101103.19;;;17.22;49.69
77583;BME280;66726;52.388;9.986;2023-06-14T02:24:42;101091.94;;;17.18;49.43
77583;BME280;66726;52.388;9.986;2023-06-14T02:27:13;101101.50;;;17.21;48.94
77583;BME280;66726;52.388;9.986;2023-06-14T02:29:47;101097.22;;;17.05;50.15
77583;BME280;66726;52.388;9.986;2023-06-14T02:32:19;101097.47;;;17.10;49.86
77583;BME280;66726;52.388;9.986;2023-06-14T02:34:51;101101.00;;;17.11;49.36
77583;BME280;66726;52.388;9.986;2023-06-14T02:37:24;101104.75;;;17.10;49.63
77583;BME280;66726;52.388;9.986;2023-06-14T02:39:58;101104.78;;;16.95;50.54
77583;BME280;66726;52.388;9.986;2023-06-14T02:42:30;101101.22;;;16.88;50.00
77583;BME280;66726;52.388;9.986;2023-06-14T02:45:02;101109.50;;;16.87;51.02
77583;BME280;66726;52.388;9.986;2023-06-14T02:47:34;101106.53;;;16.82;50.69
77583;BME280;66726;52.388;9.986;2023-06-14T02:50:07;101103.97;;;16.73;51.39
77583;BME280;66726;52.388;9.986;2023-06-14T02:52:39;101101.81;;;16.69;51.07
77583;BME280;66726;52.388;9.986;2023-06-14T02:55:13;101109.28;;;16.67;50.74
77583;BME280;66726;52.388;9.986;2023-06-14T02:57:45;101113.03;;;16.66;50.84
77583;BME280;66726;52.388;9.986;2023-06-14T03:00:19;101113.66;;;16.68;50.25
77583;BME280;66726;52.388;9.986;2023-06-14T03:02:51;101117.59;;;16.65;51.52
77583;BME280;66726;52.388;9.986;2023-06-14T03:05:25;101120.50;;;16.64;51.05
77583;BME280;66726;52.388;9.986;2023-06-14T03:07:58;101120.88;;;16.61;50.96
77583;BME280;66726;52.388;9.986;2023-06-14T03:10:32;101129.63;;;16.48;51.88
77583;BME280;66726;52.388;9.986;2023-06-14T03:13:04;101128.69;;;16.41;52.17
77583;BME280;66726;52.388;9.986;2023-06-14T03:15:35;101131.78;;;16.38;51.63
77583;BME280;66726;52.388;9.986;2023-06-14T03:18:07;101132.44;;;16.40;52.05
77583;BME280;66726;52.388;9.986;2023-06-14T03:20:40;101141.28;;;16.34;52.15
77583;BME280;66726;52.388;9.986;2023-06-14T03:23:14;101132.06;;;16.43;51.97
77583;BME280;66726;52.388;9.986;2023-06-14T03:25:47;101140.91;;;16.37;52.57
77583;BME280;66726;52.388;9.986;2023-06-14T03:28:19;101143.34;;;16.32;52.61
77583;BME280;66726;52.388;9.986;2023-06-14T03:30:53;101145.84;;;16.34;52.24
77583;BME280;66726;52.388;9.986;2023-06-14T03:33:25;101140.34;;;16.27;51.91
77583;BME280;66726;52.388;9.986;2023-06-14T03:35:56;101143.06;;;16.27;52.28
77583;BME280;66726;52.388;9.986;2023-06-14T03:38:29;101146.03;;;16.17;53.35
77583;BME280;66726;52.388;9.986;2023-06-14T03:41:02;101150.50;;;16.10;53.02
77583;BME280;66726;52.388;9.986;2023-06-14T03:43:34;101156.56;;;15.98;53.28
77583;BME280;66726;52.388;9.986;2023-06-14T03:46:06;101153.88;;;15.98;53.89
77583;BME280;66726;52.388;9.986;2023-06-14T03:48:38;101160.66;;;15.94;54.18
77583;BME280;66726;52.388;9.986;2023-06-14T03:51:10;101164.84;;;15.82;53.55
77583;BME280;66726;52.388;9.986;2023-06-14T03:53:42;101162.78;;;15.84;54.41
77583;BME280;66726;52.388;9.986;2023-06-14T03:56:35;101169.69;;;15.86;54.13
77583;BME280;66726;52.388;9.986;2023-06-14T03:59:07;101163.44;;;15.86;53.99
77583;BME280;66726;52.388;9.986;2023-06-14T04:01:43;101171.25;;;15.81;53.99
77583;BME280;66726;52.388;9.986;2023-06-14T04:04:17;101175.66;;;15.82;53.89
77583;BME280;66726;52.388;9.986;2023-06-14T04:06:49;101181.75;;;15.76;54.09
77583;BME280;66726;52.388;9.986;2023-06-14T04:09:20;101178.41;;;15.73;55.54
77583;BME280;66726;52.388;9.986;2023-06-14T04:11:54;101182.22;;;15.64;54.68
77583;BME280;66726;52.388;9.986;2023-06-14T04:14:26;101179.06;;;15.76;54.48
77583;BME280;66726;52.388;9.986;2023-06-14T04:16:58;101187.53;;;15.72;54.74
77583;BME280;66726;52.388;9.986;2023-06-14T04:19:30;101187.53;;;15.72;54.74
77583;BME280;66726;52.388;9.986;2023-06-14T04:22:03;101184.66;;;15.74;54.93
77583;BME280;66726;52.388;9.986;2023-06-14T04:24:35;101190.22;;;15.72;55.22
77583;BME280;66726;52.388;9.986;2023-06-14T04:27:08;101189.66;;;15.62;54.97
77583;BME280;66726;52.388;9.986;2023-06-14T04:29:40;101190.38;;;15.56;55.53
77583;BME280;66726;52.388;9.986;2023-06-14T04:32:14;101192.72;;;15.59;55.21
77583;BME280;66726;52.388;9.986;2023-06-14T04:34:49;101190.38;;;15.56;55.22
77583;BME280;66726;52.388;9.986;2023-06-14T04:37:24;101190.22;;;15.58;55.48
77583;BME280;66726;52.388;9.986;2023-06-14T04:40:00;101191.75;;;15.52;55.89
77583;BME280;66726;52.388;9.986;2023-06-14T04:42:37;101197.09;;;15.60;55.10
77583;BME280;66726;52.388;9.986;2023-06-14T04:45:09;101199.78;;;15.60;55.63
77583;BME280;66726;52.388;9.986;2023-06-14T04:47:41;101203.34;;;15.61;55.31
77583;BME280;66726;52.388;9.986;2023-06-14T04:50:14;101202.50;;;15.60;55.71
77583;BME280;66726;52.388;9.986;2023-06-14T04:52:48;101205.63;;;15.49;56.65
77583;BME280;66726;52.388;9.986;2023-06-14T04:55:23;101201.19;;;15.56;56.25
77583;BME280;66726;52.388;9.986;2023-06-14T04:57:56;101203.34;;;15.61;57.04
77583;BME280;66726;52.388;9.986;2023-06-14T05:00:28;101197.84;;;15.54;56.50
77583;BME280;66726;52.388;9.986;2023-06-14T05:03:01;101210.97;;;15.57;56.69
77583;BME280;66726;52.388;9.986;2023-06-14T05:05:33;101198.41;;;15.64;56.04
77583;BME280;66726;52.388;9.986;2023-06-14T05:08:05;101205.47;;;15.65;56.30
77583;BME280;66726;52.388;9.986;2023-06-14T05:10:37;101216.63;;;15.62;56.41
77583;BME280;66726;52.388;9.986;2023-06-14T05:13:10;101219.06;;;15.72;56.32
77583;BME280;66726;52.388;9.986;2023-06-14T05:15:42;101215.19;;;15.75;56.94
77583;BME280;66726;52.388;9.986;2023-06-14T05:18:14;101219.38;;;15.77;56.28
77583;BME280;66726;52.388;9.986;2023-06-14T05:20:46;101218.00;;;15.81;56.57
77583;BME280;66726;52.388;9.986;2023-06-14T05:23:18;101216.16;;;15.82;56.81
77583;BME280;66726;52.388;9.986;2023-06-14T05:25:50;101224.13;;;15.75;56.66
77583;BME280;66726;52.388;9.986;2023-06-14T05:28:24;101228.34;;;15.78;56.33
77583;BME280;66726;52.388;9.986;2023-06-14T05:30:56;101234.78;;;15.68;57.46
77583;BME280;66726;52.388;9.986;2023-06-14T05:33:28;101225.41;;;15.64;57.56
77583;BME280;66726;52.388;9.986;2023-06-14T05:36:00;101227.75;;;15.67;57.14
77583;BME280;66726;52.388;9.986;2023-06-14T05:38:32;101233.41;;;15.72;56.21
77583;BME280;66726;52.388;9.986;2023-06-14T05:41:04;101231.03;;;15.78;56.84
77583;BME280;66726;52.388;9.986;2023-06-14T05:43:37;101241.47;;;15.81;57.40
77583;BME280;66726;52.388;9.986;2023-06-14T05:46:09;101239.03;;;15.86;57.13
77583;BME280;66726;52.388;9.986;2023-06-14T05:48:41;101235.91;;;15.82;57.64
77583;BME280;66726;52.388;9.986;2023-06-14T05:51:13;101239.03;;;15.86;57.41
77583;BME280;66726;52.388;9.986;2023-06-14T05:53:45;101239.34;;;15.91;57.38
77583;BME280;66726;52.388;9.986;2023-06-14T05:56:17;101242.16;;;15.97;56.97
77583;BME280;66726;52.388;9.986;2023-06-14T05:58:51;101240.56;;;16.03;56.31
77583;BME280;66726;52.388;9.986;2023-06-14T06:01:23;101245.25;;;16.09;56.57
77583;BME280;66726;52.388;9.986;2023-06-14T06:03:55;101250.28;;;16.12;57.29
77583;BME280;66726;52.388;9.986;2023-06-14T06:06:27;101256.63;;;16.19;56.62
77583;BME280;66726;52.388;9.986;2023-06-14T06:08:59;101254.88;;;16.26;56.05
77583;BME280;66726;52.388;9.986;2023-06-14T06:11:31;101259.22;;;16.27;55.82
77583;BME280;66726;52.388;9.986;2023-06-14T06:14:19;101258.22;;;16.28;56.26
77583;BME280;66726;52.388;9.986;2023-06-14T06:16:51;101255.16;;;16.31;56.65
77583;BME280;66726;52.388;9.986;2023-06-14T06:19:23;101246.50;;;16.36;54.96
77583;BME280;66726;52.388;9.986;2023-06-14T06:21:56;101250.31;;;16.41;56.00
77583;BME280;66726;52.388;9.986;2023-06-14T06:24:28;101250.59;;;16.46;55.00
77583;BME280;66726;52.388;9.986;2023-06-14T06:26:59;101252.94;;;16.49;55.07
77583;BME280;66726;52.388;9.986;2023-06-14T06:29:32;101252.25;;;16.47;55.48
77583;BME280;66726;52.388;9.986;2023-06-14T06:32:04;101255.91;;;16.40;55.28
77583;BME280;66726;52.388;9.986;2023-06-14T06:34:36;101254.63;;;16.50;55.75
77583;BME280;66726;52.388;9.986;2023-06-14T06:37:09;101256.59;;;16.56;54.38
77583;BME280;66726;52.388;9.986;2023-06-14T06:39:41;101260.63;;;16.60;55.29
77583;BME280;66726;52.388;9.986;2023-06-14T06:42:14;101265.16;;;16.60;54.86
77583;BME280;66726;52.388;9.986;2023-06-14T06:44:47;101268.81;;;16.67;54.96
77583;BME280;66726;52.388;9.986;2023-06-14T06:47:19;101273.94;;;16.77;55.84
77583;BME280;66726;52.388;9.986;2023-06-14T06:49:51;101269.81;;;16.81;54.86
77583;BME280;66726;52.388;9.986;2023-06-14T06:52:23;101270.75;;;16.88;54.41
77583;BME280;66726;52.388;9.986;2023-06-14T06:54:55;101279.78;;;16.95;54.65
77583;BME280;66726;52.388;9.986;2023-06-14T06:57:27;101272.31;;;16.97;54.23
77583;BME280;66726;52.388;9.986;2023-06-14T07:00:01;101288.06;;;17.08;54.23
77583;BME280;66726;52.388;9.986;2023-06-14T07:02:36;101287.03;;;17.09;53.55
77583;BME280;66726;52.388;9.986;2023-06-14T07:05:08;101281.50;;;17.17;53.48
77583;BME280;66726;52.388;9.986;2023-06-14T07:07:40;101281.41;;;17.25;53.13
77583;BME280;66726;52.388;9.986;2023-06-14T07:10:12;101286.69;;;17.33;52.34
77583;BME280;66726;52.388;9.986;2023-06-14T07:12:44;101294.06;;;17.39;52.33
77583;BME280;66726;52.388;9.986;2023-06-14T07:15:17;101302.03;;;17.47;51.58
77583;BME280;66726;52.388;9.986;2023-06-14T07:17:49;101289.41;;;17.54;51.58
77583;BME280;66726;52.388;9.986;2023-06-14T07:20:21;101290.13;;;17.56;51.89
77583;BME280;66726;52.388;9.986;2023-06-14T07:22:55;101290.19;;;17.63;51.74
77583;BME280;66726;52.388;9.986;2023-06-14T07:25:27;101297.78;;;17.74;51.76
77583;BME280;66726;52.388;9.986;2023-06-14T07:27:58;101293.91;;;17.83;51.10
77583;BME280;66726;52.388;9.986;2023-06-14T07:30:32;101300.25;;;17.90;51.69
77583;BME280;66726;52.388;9.986;2023-06-14T07:33:04;101298.44;;;17.97;51.05
77583;BME280;66726;52.388;9.986;2023-06-14T07:35:36;101300.53;;;18.02;50.12
77583;BME280;66726;52.388;9.986;2023-06-14T07:38:11;101295.00;;;18.10;49.47
77583;BME280;66726;52.388;9.986;2023-06-14T07:40:43;101301.88;;;18.12;49.89
77583;BME280;66726;52.388;9.986;2023-06-14T07:43:16;101287.53;;;18.18;49.53
77583;BME280;66726;52.388;9.986;2023-06-14T07:45:50;101291.88;;;18.13;48.16
77583;BME280;66726;52.388;9.986;2023-06-14T07:48:36;101296.13;;;18.22;49.03
77583;BME280;66726;52.388;9.986;2023-06-14T07:51:08;101293.13;;;18.10;48.71
77583;BME280;66726;52.388;9.986;2023-06-14T07:53:40;101282.97;;;18.19;49.22
77583;BME280;66726;52.388;9.986;2023-06-14T07:56:12;101277.66;;;18.32;49.71
77583;BME280;66726;52.388;9.986;2023-06-14T07:58:44;101289.19;;;18.41;48.99
77583;BME280;66726;52.388;9.986;2023-06-14T08:01:17;101287.81;;;18.51;48.29
77583;BME280;66726;52.388;9.986;2023-06-14T08:03:50;101294.16;;;18.65;47.39
77583;BME280;66726;52.388;9.986;2023-06-14T08:06:22;101283.03;;;18.53;48.48
77583;BME280;66726;52.388;9.986;2023-06-14T08:08:54;101299.78;;;18.63;47.99
77583;BME280;66726;52.388;9.986;2023-06-14T08:11:26;101294.66;;;18.75;46.87
77583;BME280;66726;52.388;9.986;2023-06-14T08:13:58;101294.84;;;18.73;46.42
77583;BME280;66726;52.388;9.986;2023-06-14T08:16:31;101292.13;;;18.73;47.13
77583;BME280;66726;52.388;9.986;2023-06-14T08:19:03;101292.84;;;18.89;46.82
77583;BME280;66726;52.388;9.986;2023-06-14T08:21:35;101285.41;;;19.04;46.43
77583;BME280;66726;52.388;9.986;2023-06-14T08:24:08;101289.00;;;19.11;46.65
77583;BME280;66726;52.388;9.986;2023-06-14T08:26:40;101289.81;;;19.18;46.17
77583;BME280;66726;52.388;9.986;2023-06-14T08:29:12;101289.69;;;19.39;45.14
77583;BME280;66726;52.388;9.986;2023-06-14T08:31:46;101286.41;;;19.50;44.58
77583;BME280;66726;52.388;9.986;2023-06-14T08:34:18;101291.25;;;19.55;45.65
77583;BME280;66726;52.388;9.986;2023-06-14T08:36:52;101293.56;;;19.64;43.44
77583;BME280;66726;52.388;9.986;2023-06-14T08:39:24;101282.88;;;19.63;42.84
77583;BME280;66726;52.388;9.986;2023-06-14T08:41:56;101289.81;;;19.79;43.59
77583;BME280;66726;52.388;9.986;2023-06-14T08:44:28;101285.44;;;19.84;44.29
77583;BME280;66726;52.388;9.986;2023-06-14T08:47:03;101288.16;;;19.91;43.49
77583;BME280;66726;52.388;9.986;2023-06-14T08:49:38;101291.94;;;20.03;42.95
77583;BME280;66726;52.388;9.986;2023-06-14T08:52:14;101293.38;;;19.99;43.50
77583;BME280;66726;52.388;9.986;2023-06-14T08:54:49;101295.69;;;20.15;43.37
77583;BME280;66726;52.388;9.986;2023-06-14T08:57:22;101289.41;;;20.21;42.84
77583;BME280;66726;52.388;9.986;2023-06-14T08:59:56;101285.47;;;20.17;42.68
77583;BME280;66726;52.388;9.986;2023-06-14T09:02:33;101285.91;;;20.27;43.38
77583;BME280;66726;52.388;9.986;2023-06-14T09:05:07;101280.19;;;20.48;43.03
77583;BME280;66726;52.388;9.986;2023-06-14T09:07:39;101290.41;;;20.72;42.28
77583;BME280;66726;52.388;9.986;2023-06-14T09:10:14;101298.16;;;20.82;42.28
77583;BME280;66726;52.388;9.986;2023-06-14T09:12:47;101297.47;;;20.87;41.35
77583;BME280;66726;52.388;9.986;2023-06-14T09:15:19;101293.50;;;20.89;41.54
77583;BME280;66726;52.388;9.986;2023-06-14T09:17:52;101298.50;;;20.99;40.79
77583;BME280;66726;52.388;9.986;2023-06-14T09:20:25;101295.97;;;21.04;41.80
77583;BME280;66726;52.388;9.986;2023-06-14T09:22:57;101294.69;;;21.19;40.39
77583;BME280;66726;52.388;9.986;2023-06-14T09:25:29;101305.09;;;21.29;40.63
77583;BME280;66726;52.388;9.986;2023-06-14T09:28:10;101299.47;;;21.24;40.77
77583;BME280;66726;52.388;9.986;2023-06-14T09:30:42;101300.91;;;21.33;40.14
77583;BME280;66726;52.388;9.986;2023-06-14T09:33:20;101297.09;;;21.34;39.42
77583;BME280;66726;52.388;9.986;2023-06-14T09:35:55;101298.75;;;21.42;39.93
77583;BME280;66726;52.388;9.986;2023-06-14T09:38:28;101303.72;;;21.51;40.34
77583;BME280;66726;52.388;9.986;2023-06-14T09:41:05;101297.41;;;21.57;40.64
77583;BME280;66726;52.388;9.986;2023-06-14T09:43:38;101293.63;;;21.58;39.44
77583;BME280;66726;52.388;9.986;2023-06-14T09:46:10;101300.25;;;21.69;40.27
77583;BME280;66726;52.388;9.986;2023-06-14T09:48:43;101286.97;;;21.79;39.28
77583;BME280;66726;52.388;9.986;2023-06-14T09:51:19;101292.38;;;21.92;40.78
77583;BME280;66726;52.388;9.986;2023-06-14T09:53:55;101288.88;;;22.10;39.48
77583;BME280;66726;52.388;9.986;2023-06-14T09:56:34;101293.63;;;22.21;39.25
77583;BME280;66726;52.388;9.986;2023-06-14T09:59:10;101290.38;;;22.31;38.30
77583;BME280;66726;52.388;9.986;2023-06-14T10:01:47;101292.13;;;22.43;38.53
77583;BME280;66726;52.388;9.986;2023-06-14T10:04:26;101289.69;;;22.60;38.48
77583;BME280;66726;52.388;9.986;2023-06-14T10:07:00;101280.19;;;22.62;38.09
77583;BME280;66726;52.388;9.986;2023-06-14T10:09:35;101287.16;;;22.83;37.96
77583;BME280;66726;52.388;9.986;2023-06-14T10:12:09;101287.53;;;22.87;38.19
77583;BME280;66726;52.388;9.986;2023-06-14T10:14:41;101281.22;;;23.04;37.09
77583;BME280;66726;52.388;9.986;2023-06-14T10:17:22;101280.97;;;23.06;37.33
77583;BME280;66726;52.388;9.986;2023-06-14T10:20:06;101283.63;;;23.12;37.11
77583;BME280;66726;52.388;9.986;2023-06-14T10:22:49;101277.47;;;23.17;38.22
77583;BME280;66726;52.388;9.986;2023-06-14T10:25:33;101272.31;;;23.27;37.04
77583;BME280;66726;52.388;9.986;2023-06-14T10:28:19;101282.41;;;23.45;36.87
77583;BME280;66726;52.388;9.986;2023-06-14T10:31:09;101275.50;;;23.42;36.13
77583;BME280;66726;52.388;9.986;2023-06-14T10:33:55;101277.88;;;23.50;37.47
77583;BME280;66726;52.388;9.986;2023-06-14T10:36:33;101271.84;;;23.60;37.31
77583;BME280;66726;52.388;9.986;2023-06-14T10:39:10;101281.91;;;23.78;37.12
77583;BME280;66726;52.388;9.986;2023-06-14T10:41:50;101277.84;;;23.68;34.99
77583;BME280;66726;52.388;9.986;2023-06-14T10:44:49;101272.22;;;23.63;36.45
77583;BME280;66726;52.388;9.986;2023-06-14T10:47:29;101273.44;;;23.67;35.67
77583;BME280;66726;52.388;9.986;2023-06-14T10:50:09;101263.63;;;23.48;36.00
77583;BME280;66726;52.388;9.986;2023-06-14T10:52:44;101271.75;;;23.66;35.71
77583;BME280;66726;52.388;9.986;2023-06-14T10:55:16;101262.03;;;23.70;35.91
77583;BME280;66726;52.388;9.986;2023-06-14T10:57:53;101266.31;;;23.78;36.87
77583;BME280;66726;52.388;9.986;2023-06-14T11:00:29;101263.16;;;23.93;37.08
77583;BME280;66726;52.388;9.986;2023-06-14T11:03:48;101261.00;;;23.95;35.40
77583;BME280;66726;52.388;9.986;2023-06-14T11:06:30;101264.00;;;23.93;35.20
77583;BME280;66726;52.388;9.986;2023-06-14T11:09:51;101261.91;;;23.77;35.47
77583;BME280;66726;52.388;9.986;2023-06-14T11:12:33;101262.91;;;23.94;35.67
77583;BME280;66726;52.388;9.986;2023-06-14T11:15:11;101261.72;;;23.90;35.78
77583;BME280;66726;52.388;9.986;2023-06-14T11:17:52;101262.91;;;23.94;35.46
77583;BME280;66726;52.388;9.986;2023-06-14T11:20:27;101257.25;;;24.07;36.68
77583;BME280;66726;52.388;9.986;2023-06-14T11:22:59;101253.31;;;24.15;35.39
77583;BME280;66726;52.388;9.986;2023-06-14T11:25:32;101257.75;;;24.16;35.41
77583;BME280;66726;52.388;9.986;2023-06-14T11:28:04;101250.94;;;24.18;35.30
77583;BME280;66726;52.388;9.986;2023-06-14T11:30:36;101250.84;;;24.13;35.00
77583;BME280;66726;52.388;9.986;2023-06-14T11:33:15;101246.09;;;24.20;36.23
77583;BME280;66726;52.388;9.986;2023-06-14T11:35:48;101250.09;;;24.06;35.29
77583;BME280;66726;52.388;9.986;2023-06-14T11:38:20;101241.13;;;23.76;35.94
77583;BME280;66726;52.388;9.986;2023-06-14T11:40:58;101251.75;;;23.96;36.65
77583;BME280;66726;52.388;9.986;2023-06-14T11:43:29;101243.78;;;24.06;36.39
77583;BME280;66726;52.388;9.986;2023-06-14T11:46:03;101246.22;;;24.14;36.22
77583;BME280;66726;52.388;9.986;2023-06-14T11:48:42;101244.06;;;24.16;36.10
77583;BME280;66726;52.388;9.986;2023-06-14T11:51:16;101237.63;;;24.22;36.07
77583;BME280;66726;52.388;9.986;2023-06-14T11:53:49;101240.97;;;24.24;36.38
77583;BME280;66726;52.388;9.986;2023-06-14T11:56:23;101238.34;;;24.29;36.14
77583;BME280;66726;52.388;9.986;2023-06-14T11:58:56;101233.19;;;24.09;35.70
77583;BME280;66726;52.388;9.986;2023-06-14T12:01:29;101231.31;;;24.21;35.70
77583;BME280;66726;52.388;9.986;2023-06-14T12:04:02;101224.53;;;24.47;35.42
77583;BME280;66726;52.388;9.986;2023-06-14T12:06:35;101235.84;;;24.51;36.42
77583;BME280;66726;52.388;9.986;2023-06-14T12:09:10;101228.34;;;24.46;35.73
77583;BME280;66726;52.388;9.986;2023-06-14T12:11:50;101228.47;;;24.51;35.81
77583;BME280;66726;52.388;9.986;2023-06-14T12:14:21;101227.50;;;24.46;35.41
77583;BME280;66726;52.388;9.986;2023-06-14T12:17:09;101225.25;;;24.54;35.64
77583;BME280;66726;52.388;9.986;2023-06-14T12:19:46;101223.91;;;24.68;35.66
77583;BME280;66726;52.388;9.986;2023-06-14T12:22:19;101219.72;;;24.78;35.80
77583;BME280;66726;52.388;9.986;2023-06-14T12:24:51;101220.44;;;24.85;35.38
77583;BME280;66726;52.388;9.986;2023-06-14T12:27:28;101215.91;;;24.79;35.19
77583;BME280;66726;52.388;9.986;2023-06-14T12:30:04;101222.34;;;24.72;35.16
77583;BME280;66726;52.388;9.986;2023-06-14T12:32:38;101217.59;;;24.56;35.11
77583;BME280;66726;52.388;9.986;2023-06-14T12:35:11;101218.44;;;24.68;35.24
77583;BME280;66726;52.388;9.986;2023-06-14T12:37:43;101216.03;;;24.84;34.94
77583;BME280;66726;52.388;9.986;2023-06-14T12:40:16;101216.53;;;25.09;35.80
77583;BME280;66726;52.388;9.986;2023-06-14T12:42:49;101223.00;;;25.31;33.55
77583;BME280;66726;52.388;9.986;2023-06-14T12:45:21;101218.94;;;25.34;34.01
77583;BME280;66726;52.388;9.986;2023-06-14T12:47:54;101218.69;;;25.63;33.36
77583;BME280;66726;52.388;9.986;2023-06-14T12:50:25;101214.41;;;25.28;32.85
77583;BME280;66726;52.388;9.986;2023-06-14T12:52:57;101209.47;;;25.69;33.15
77583;BME280;66726;52.388;9.986;2023-06-14T12:55:29;101208.06;;;25.84;32.34
77583;BME280;66726;52.388;9.986;2023-06-14T12:58:02;101210.59;;;26.07;32.36
77583;BME280;66726;52.388;9.986;2023-06-14T13:00:35;101199.91;;;26.22;32.79
77583;BME280;66726;52.388;9.986;2023-06-14T13:03:06;101197.88;;;26.34;31.93
77583;BME280;66726;52.388;9.986;2023-06-14T13:05:39;101203.63;;;26.33;32.04
77583;BME280;66726;52.388;9.986;2023-06-14T13:08:11;101198.06;;;26.11;33.13
77583;BME280;66726;52.388;9.986;2023-06-14T13:10:43;101207.03;;;25.90;32.20
77583;BME280;66726;52.388;9.986;2023-06-14T13:13:16;101202.91;;;25.87;32.10
77583;BME280;66726;52.388;9.986;2023-06-14T13:15:48;101198.97;;;26.00;32.41
77583;BME280;66726;52.388;9.986;2023-06-14T13:18:21;101202.81;;;25.99;32.29
77583;BME280;66726;52.388;9.986;2023-06-14T13:20:52;101197.16;;;26.05;33.50
77583;BME280;66726;52.388;9.986;2023-06-14T13:23:25;101203.56;;;25.94;32.54
77583;BME280;66726;52.388;9.986;2023-06-14T13:25:57;101190.59;;;25.90;34.04